OIIE/IKA METAR and TAF weather

Enter ICAO airport designator
Station Type Date Time Source
OIIE METAR 2020/09/22 17:00 UTC NOAA

OIIE 221700Z 00000KT 9999 FEW100 24/05 Q1018


Station Type Date Time Source
OIIE Decoded METAR 2020/09/22 17:00 UTC NOAA

Station name not available
Sep 22, 2020 - 01:00 PM EDT / 2020.09.22 1700 UTC
Wind: Calm:0
Visibility: greater than 7 mile(s):0
Sky conditions: mostly clear
Temperature: 75 F (24 C)
Dew Point: 41 F (5 C)
Relative Humidity: 29%
Pressure (altimeter): 30.06 in. Hg (1018 hPa)
ob: OIIE 221700Z 00000KT 9999 FEW100 24/05 Q1018
cycle: 17

Station Type Date Time Source
OIIE TAF 2020/09/22 18:00 UTC NOAA

TAF OIIE 221710Z 2218/2324 33008KT 8000 NSC
BECMG 2306/2308 16008KT
BECMG 2317/2319 34008KT

Example: see airport list